Main page
METAR-TAF:

METAR-TAF

Airports :

Baghdad International Airport

Baghdad, Iraq

latitude: 33-15-45N, longitude: 44-14-04E, elevation: 35 m

Current weather observation

The report was made 1 hour and 8 minutes ago, at 12:00 UTC
Wind 3 kt from the South, varying between Southeast and South/Southwest
Temperature 23°C
Humidity 50%
Pressure 1018 hPa
Visibility 10 km or more
Few clouds at a height of 3000 ft
Broken clouds at a height of 10000 ft

METAR: ORBI 211200Z 18003KT 140V210 9999 FEW030 BKN100 23/12 Q1018 NOSIG

Time: 16:08 (13:08 UTC)

Forecast

The report was made 9 hours and 8 minutes ago, at 04:00 UTC
Forecast valid from 21 at 06 UTC to 22 at 06 UTC
Wind 3 kt from variable directions
Visibility: 7000 m
Scattered clouds at a height of 3000 ft
Broken clouds at a height of 8000 ft

TAF: ORBI 210400Z 2106/2206 VRB03KT 7000 SCT030 BKN080

Weather observations and forecasts of more than 4000 airports (METAR and TAF reports).

The available stations are represented by yellow and red dots on the map.

Hover mouse over dot to see the name of the station.

Then click to see weather observations and forecasts.

To change the map : click on the green buttons with a black cross to zoom in, on the green button with a dash to zoom out, or on the green arrows for adjacent maps.


METAR-TAF: